Airfield :
LOGIN :

Register | Disclaimer

   EN    FR    IT 

 










Legend :    VFR   Marginal VFR   IFR   Intensive IFR   Very Intensive IFR
Visi :
Ceiling :
>= 8 km
>= 3000ft
5 to 8 km
1000 to 3000 ft
1500m to 5 km
500 to 1000 ft
800 to 1500m
200 to 500 ft
< 800m
< 200 ft
Symbols :   Thunderstorms  Fog  Heavy snow  Heavy precipitations  Wind > 20 kt
SIGMETs :     Misc.  Thunderstorms  Icing  Turbulence  Mountain Waves  Volcanic Ashes






- Airport Elevation : 171 ft
- IATA code : EGC


LFBE - Bergerac

CURRENT METAR :
  • 162100Z AUTO 23003KT 9999 BKN019 BKN025 06/05 Q1009 BECMG 4000 BR BKN007

EXPIRED METARs :
  • 162030Z AUTO 23003KT CAVOK 06/05 Q1009 BECMG 4000 BR BKN007
  • 162000Z AUTO 24003KT 9999 FEW011 SCT023 BKN049 07/06 Q1009 BECMG 4000 BR BKN007
  • 161930Z AUTO 25002KT 9999 SCT014 BKN023 BKN037 07/06 Q1008 BECMG 4000 BR BKN007
  • 161900Z AUTO 25004KT 9999 FEW013 OVC052 07/05 Q1008 TEMPO BKN010
  • 161830Z AUTO 25003KT 210V290 9999 BKN010 OVC014 07/06 Q1008 BECMG BKN040
  • 161800Z AUTO 28004KT 250V320 9999 OVC009 08/06 Q1008 TEMPO BKN010

TAF TAF LFBE
Valid from the 16 at 18:00 until the 17 at 18:00 UTC


161700Z 1618/1718 23008KT 9999 BKN040
TEMPO 1618/1620 BKN010
BECMG 1621/1623 VRB02KT 4000 BR BKN007
PROB40 1700/1710 0500 FG VV///
BECMG 1710/1712 9999 NSW BKN020



MET'MAP, your aeronautical weather chart ! - Copyright ORBIFLY December 2007 - Disclaimer

ORBIFLY MET'MAP TEAM :

Programming & Development : Alexandra Zaïnal
Concept & Development : Baudouin d'Aumeries
Co-Development & Prog : Marc-Olivier Méhu
Technical & hardware support : Manuel Goepfert

Contact : metmap@orbifly.com




SOURCES & CREDITS :

   NOAA